Fidato — PB5970 — position and weather

sailwx.info

Track history (hours):
 
Tides and Currents Weather Stations Pressure Air Temp Water Temp Dewpoint Dewpoint Depression Visibility Wind Speed Wind Dir Waves Ship Positions

Fidato

Last reported at 2014-Oct-30 23:33 UTC. Time now 2014-Oct-30 23:50 UTC.
Position N 51°49' E 004°58'.

Length 135 m; draft 2.5 m.

Type: Ship. MMSI: 244670975.

Date/timePositionNaut miles runAvg speedWind from/ knotsBaromVisibWave heightAir tempDewpointWater temp
2014-Oct-30 23:33N 51°49' E 004°58'0 0.0
2014-Oct-30 22:33N 51°49' E 004°58'0 0.0
2014-Oct-30 21:33N 51°49' E 004°58'0 0.0
2014-Oct-30 20:33N 51°49' E 004°58'0 0.0
2014-Oct-30 19:33N 51°49' E 004°58'4 4.4
2014-Oct-30 18:33N 51°49' E 004°51'7 7.5
2014-Oct-30 17:34N 51°49' E 004°39'6 5.7
2014-Oct-30 16:34N 51°50' E 004°30'7 6.8
2014-Oct-30 15:33N 51°52' E 004°20'7 6.9
2014-Oct-30 14:33N 51°55' E 004°10'5 4.8
2014-Oct-30 13:32N 51°56' E 004°02'0 0.0
2014-Oct-30 12:33N 51°56' E 004°02'0 0.0
2014-Oct-30 11:33N 51°56' E 004°02'0 0.0
2014-Oct-30 10:32N 51°56' E 004°02'0 0.2
2014-Oct-30 09:33N 51°56' E 004°02'0 0.0
2014-Oct-30 08:33N 51°56' E 004°02'0 0.0
2014-Oct-30 07:33N 51°56' E 004°02'0 0.0
2014-Oct-30 06:34N 51°56' E 004°02'0 0.0
2014-Oct-30 05:33N 51°56' E 004°02'0 0.0
2014-Oct-30 04:33N 51°56' E 004°02'0 0.0
2014-Oct-30 03:33N 51°56' E 004°02'0 0.0
2014-Oct-30 02:33N 51°56' E 004°02'0 0.0
2014-Oct-30 01:33N 51°56' E 004°02'0 0.0
2014-Oct-30 00:33N 51°56' E 004°02'0 0.0
2014-Oct-29 23:33N 51°56' E 004°02'0 0.0
2014-Oct-29 22:33N 51°56' E 004°02'0 0.0
2014-Oct-29 21:33N 51°56' E 004°02'0 0.0
2014-Oct-29 20:33N 51°56' E 004°02'3 2.5
2014-Oct-29 19:33N 51°58' E 004°05'7 7.4
2014-Oct-29 18:33N 51°54' E 004°16'3 3.4
2014-Oct-29 17:33N 51°54' E 004°21'0 0.1
2014-Oct-29 16:33N 51°54' E 004°21'0 0.0
2014-Oct-29 15:33N 51°54' E 004°21'0 0.0
2014-Oct-29 14:32N 51°54' E 004°21'0 0.0
2014-Oct-29 13:33N 51°54' E 004°21'0 0.0
2014-Oct-29 12:33N 51°54' E 004°21'0 0.0
2014-Oct-29 11:33N 51°54' E 004°21'0 0.0
2014-Oct-29 10:28N 51°54' E 004°21'0 0.1
2014-Oct-29 09:33N 51°54' E 004°21'3 3.0
2014-Oct-29 08:33N 51°54' E 004°26'5 4.7
2014-Oct-29 07:33N 51°54' E 004°34'7 6.8
2014-Oct-29 06:33N 51°49' E 004°41'7 7.2
2014-Oct-29 05:33N 51°49' E 004°53'2 1.5
2014-Oct-29 04:34N 51°50' E 004°55'0 0.0
2014-Oct-29 03:34N 51°50' E 004°55'0 0.0
2014-Oct-29 02:34N 51°50' E 004°55'0 0.0
2014-Oct-29 01:33N 51°50' E 004°55'0 0.0
2014-Oct-29 00:34N 51°50' E 004°55'0 0.0
2014-Oct-28 23:34N 51°50' E 004°55'0 0.2
2014-Oct-28 22:34N 51°50' E 004°55'8 7.6
2014-Oct-28 21:34N 51°49' E 005°07'8 7.7
2014-Oct-28 20:34N 51°49' E 005°20'7 7.1
2014-Oct-28 19:34N 51°53' E 005°29'9 8.4
2014-Oct-28 18:31N 51°53' E 005°43'10 7.0
2014-Oct-28 17:04N 51°52' E 005°59'39 5.9
2014-Oct-28 10:23N 51°22' E 006°39'2 0.7
2014-Oct-28 08:21N 51°20' E 006°40'0 0.0
2014-Oct-28 06:30N 51°20' E 006°40'0 0.0
2014-Oct-27 18:22N 51°20' E 006°41'0 0.0
2014-Oct-27 17:11N 51°20' E 006°41'0 0.0
2014-Oct-27 16:32N 51°20' E 006°41'0 0.0
2014-Oct-27 15:33N 51°20' E 006°41'1 0.7
2014-Oct-27 14:16N 51°21' E 006°39'4 6.2
2014-Oct-27 13:33N 51°17' E 006°42'4 3.7
2014-Oct-27 12:33N 51°13' E 006°43'0 0.0
2014-Oct-27 11:34N 51°13' E 006°43'0 0.0
2014-Oct-27 10:33N 51°13' E 006°43'0 0.0
2014-Oct-27 09:33N 51°13' E 006°43'0 0.0
2014-Oct-27 08:33N 51°13' E 006°43'0 0.0
2014-Oct-27 07:33N 51°13' E 006°43'0 0.0
2014-Oct-27 06:33N 51°13' E 006°43'0 0.0
2014-Oct-27 05:33N 51°13' E 006°43'0 0.0
2014-Oct-27 04:33N 51°13' E 006°43'0 0.0
2014-Oct-27 03:33N 51°13' E 006°43'0 0.0
2014-Oct-27 02:34N 51°13' E 006°43'0 0.0
2014-Oct-27 01:33N 51°13' E 006°43'0 0.0
2014-Oct-27 00:34N 51°13' E 006°43'0 0.0
2014-Oct-26 23:33N 51°13' E 006°43'0 0.0
2014-Oct-26 22:33N 51°13' E 006°43'0 0.0
2014-Oct-26 21:33N 51°13' E 006°43'0 0.0
2014-Oct-26 20:33N 51°13' E 006°43'0 0.0
2014-Oct-26 19:33N 51°13' E 006°43'0 0.0
2014-Oct-26 18:33N 51°13' E 006°43'0 0.0
2014-Oct-26 17:33N 51°13' E 006°43'0 0.0
2014-Oct-26 16:33N 51°13' E 006°43'0 0.0
2014-Oct-26 15:33N 51°13' E 006°43'0 0.0
2014-Oct-26 14:33N 51°13' E 006°43'0 0.0
2014-Oct-26 13:33N 51°13' E 006°43'0 0.0
2014-Oct-26 12:33N 51°13' E 006°43'2 2.5
2014-Oct-26 11:33N 51°15' E 006°46'3 3.2
2014-Oct-26 10:33N 51°18' E 006°44'4 4.0
2014-Oct-26 09:33N 51°21' E 006°39'1 0.0
2014-Oct-25 11:33N 51°20' E 006°40'0 0.0
2014-Oct-25 10:30N 51°20' E 006°40'0 0.0
2014-Oct-25 09:26N 51°20' E 006°40'0 0.0
2014-Oct-25 08:33N 51°20' E 006°40'0 0.0
2014-Oct-25 07:28N 51°20' E 006°40'0 0.0
2014-Oct-25 06:33N 51°20' E 006°40'0 0.0
2014-Oct-24 17:32N 51°20' E 006°40'0 0.0
2014-Oct-23 23:30N 51°20' E 006°41'1 1.4
2014-Oct-23 22:33N 51°21' E 006°39'6 6.2
2014-Oct-23 21:33N 51°15' E 006°43'5 4.9
2014-Oct-23 20:33N 51°11' E 006°47'6 6.2
2014-Oct-23 19:33N 51°06' E 006°53'88 5.8
2014-Oct-23 04:27N 50°04' E 008°32'3 0.5
2014-Oct-22 21:33N 50°05' E 008°36'5 4.9
2014-Oct-22 20:33N 50°06' E 008°44'2 2.2
2014-Oct-22 19:33N 50°07' E 008°47'4 3.6
2014-Oct-22 18:33N 50°07' E 008°52'2 1.9
2014-Oct-22 17:33N 50°07' E 008°55'0 0.0
2014-Oct-22 16:33N 50°07' E 008°55'0 0.0
2014-Oct-22 15:33N 50°07' E 008°55'0 0.0
2014-Oct-22 14:33N 50°07' E 008°55'0 0.0
2014-Oct-22 13:33N 50°07' E 008°55'0 0.0
2014-Oct-22 12:33N 50°07' E 008°55'0 0.0
2014-Oct-22 11:33N 50°07' E 008°55'0 0.1
2014-Oct-22 10:33N 50°07' E 008°55'0 0.0
2014-Oct-22 09:33N 50°07' E 008°55'0 0.0
2014-Oct-22 08:33N 50°07' E 008°55'2 1.8
2014-Oct-22 07:33N 50°07' E 008°52'4 3.8
2014-Oct-22 06:33N 50°07' E 008°46'3 2.9
2014-Oct-22 05:32N 50°06' E 008°42'6 4.5
2014-Oct-22 04:12N 50°06' E 008°33'  
Track history (hours):
 
Tides and Currents Weather Stations Pressure Air Temp Water Temp Dewpoint Dewpoint Depression Visibility Wind Speed Wind Dir Waves Ship Positions

Fidato

Last reported at 2014-Oct-30 23:33 UTC. Time now 2014-Oct-30 23:50 UTC.
Position N 51°49' E 004°58'.

Length 135 m; draft 2.5 m.

Type: Ship. MMSI: 244670975.

Date/timePositionNaut miles runAvg speedWind from/ knotsBaromVisibWave heightAir tempDewpointWater temp
2014-Oct-30 23:33N 51°49' E 004°58'0 0.0
2014-Oct-30 22:33N 51°49' E 004°58'0 0.0
2014-Oct-30 21:33N 51°49' E 004°58'0 0.0
2014-Oct-30 20:33N 51°49' E 004°58'0 0.0
2014-Oct-30 19:33N 51°49' E 004°58'4 4.4
2014-Oct-30 18:33N 51°49' E 004°51'7 7.5
2014-Oct-30 17:34N 51°49' E 004°39'6 5.7
2014-Oct-30 16:34N 51°50' E 004°30'7 6.8
2014-Oct-30 15:33N 51°52' E 004°20'7 6.9
2014-Oct-30 14:33N 51°55' E 004°10'5 4.8
2014-Oct-30 13:32N 51°56' E 004°02'0 0.0
2014-Oct-30 12:33N 51°56' E 004°02'0 0.0
2014-Oct-30 11:33N 51°56' E 004°02'0 0.0
2014-Oct-30 10:32N 51°56' E 004°02'0 0.2
2014-Oct-30 09:33N 51°56' E 004°02'0 0.0
2014-Oct-30 08:33N 51°56' E 004°02'0 0.0
2014-Oct-30 07:33N 51°56' E 004°02'0 0.0
2014-Oct-30 06:34N 51°56' E 004°02'0 0.0
2014-Oct-30 05:33N 51°56' E 004°02'0 0.0
2014-Oct-30 04:33N 51°56' E 004°02'0 0.0
2014-Oct-30 03:33N 51°56' E 004°02'0 0.0
2014-Oct-30 02:33N 51°56' E 004°02'0 0.0
2014-Oct-30 01:33N 51°56' E 004°02'0 0.0
2014-Oct-30 00:33N 51°56' E 004°02'0 0.0
2014-Oct-29 23:33N 51°56' E 004°02'0 0.0
2014-Oct-29 22:33N 51°56' E 004°02'0 0.0
2014-Oct-29 21:33N 51°56' E 004°02'0 0.0
2014-Oct-29 20:33N 51°56' E 004°02'3 2.5
2014-Oct-29 19:33N 51°58' E 004°05'7 7.4
2014-Oct-29 18:33N 51°54' E 004°16'3 3.4
2014-Oct-29 17:33N 51°54' E 004°21'0 0.1
2014-Oct-29 16:33N 51°54' E 004°21'0 0.0
2014-Oct-29 15:33N 51°54' E 004°21'0 0.0
2014-Oct-29 14:32N 51°54' E 004°21'0 0.0
2014-Oct-29 13:33N 51°54' E 004°21'0 0.0
2014-Oct-29 12:33N 51°54' E 004°21'0 0.0
2014-Oct-29 11:33N 51°54' E 004°21'0 0.0
2014-Oct-29 10:28N 51°54' E 004°21'0 0.1
2014-Oct-29 09:33N 51°54' E 004°21'3 3.0
2014-Oct-29 08:33N 51°54' E 004°26'5 4.7
2014-Oct-29 07:33N 51°54' E 004°34'7 6.8
2014-Oct-29 06:33N 51°49' E 004°41'7 7.2
2014-Oct-29 05:33N 51°49' E 004°53'2 1.5
2014-Oct-29 04:34N 51°50' E 004°55'0 0.0
2014-Oct-29 03:34N 51°50' E 004°55'0 0.0
2014-Oct-29 02:34N 51°50' E 004°55'0 0.0
2014-Oct-29 01:33N 51°50' E 004°55'0 0.0
2014-Oct-29 00:34N 51°50' E 004°55'0 0.0
2014-Oct-28 23:34N 51°50' E 004°55'0 0.2
2014-Oct-28 22:34N 51°50' E 004°55'8 7.6
2014-Oct-28 21:34N 51°49' E 005°07'8 7.7
2014-Oct-28 20:34N 51°49' E 005°20'7 7.1
2014-Oct-28 19:34N 51°53' E 005°29'9 8.4
2014-Oct-28 18:31N 51°53' E 005°43'10 7.0
2014-Oct-28 17:04N 51°52' E 005°59'39 5.9
2014-Oct-28 10:23N 51°22' E 006°39'2 0.7
2014-Oct-28 08:21N 51°20' E 006°40'0 0.0
2014-Oct-28 06:30N 51°20' E 006°40'0 0.0
2014-Oct-27 18:22N 51°20' E 006°41'0 0.0
2014-Oct-27 17:11N 51°20' E 006°41'0 0.0
2014-Oct-27 16:32N 51°20' E 006°41'0 0.0
2014-Oct-27 15:33N 51°20' E 006°41'1 0.7
2014-Oct-27 14:16N 51°21' E 006°39'4 6.2
2014-Oct-27 13:33N 51°17' E 006°42'4 3.7
2014-Oct-27 12:33N 51°13' E 006°43'0 0.0
2014-Oct-27 11:34N 51°13' E 006°43'0 0.0
2014-Oct-27 10:33N 51°13' E 006°43'0 0.0
2014-Oct-27 09:33N 51°13' E 006°43'0 0.0
2014-Oct-27 08:33N 51°13' E 006°43'0 0.0
2014-Oct-27 07:33N 51°13' E 006°43'0 0.0
2014-Oct-27 06:33N 51°13' E 006°43'0 0.0
2014-Oct-27 05:33N 51°13' E 006°43'0 0.0
2014-Oct-27 04:33N 51°13' E 006°43'0 0.0
2014-Oct-27 03:33N 51°13' E 006°43'0 0.0
2014-Oct-27 02:34N 51°13' E 006°43'0 0.0
2014-Oct-27 01:33N 51°13' E 006°43'0 0.0
2014-Oct-27 00:34N 51°13' E 006°43'0 0.0
2014-Oct-26 23:33N 51°13' E 006°43'0 0.0
2014-Oct-26 22:33N 51°13' E 006°43'0 0.0
2014-Oct-26 21:33N 51°13' E 006°43'0 0.0
2014-Oct-26 20:33N 51°13' E 006°43'0 0.0
2014-Oct-26 19:33N 51°13' E 006°43'0 0.0
2014-Oct-26 18:33N 51°13' E 006°43'0 0.0
2014-Oct-26 17:33N 51°13' E 006°43'0 0.0
2014-Oct-26 16:33N 51°13' E 006°43'0 0.0
2014-Oct-26 15:33N 51°13' E 006°43'0 0.0
2014-Oct-26 14:33N 51°13' E 006°43'0 0.0
2014-Oct-26 13:33N 51°13' E 006°43'0 0.0
2014-Oct-26 12:33N 51°13' E 006°43'2 2.5
2014-Oct-26 11:33N 51°15' E 006°46'3 3.2
2014-Oct-26 10:33N 51°18' E 006°44'4 4.0
2014-Oct-26 09:33N 51°21' E 006°39'1 0.0
2014-Oct-25 11:33N 51°20' E 006°40'0 0.0
2014-Oct-25 10:30N 51°20' E 006°40'0 0.0
2014-Oct-25 09:26N 51°20' E 006°40'0 0.0
2014-Oct-25 08:33N 51°20' E 006°40'0 0.0
2014-Oct-25 07:28N 51°20' E 006°40'0 0.0
2014-Oct-25 06:33N 51°20' E 006°40'0 0.0
2014-Oct-24 17:32N 51°20' E 006°40'0 0.0
2014-Oct-23 23:30N 51°20' E 006°41'1 1.4
2014-Oct-23 22:33N 51°21' E 006°39'6 6.2
2014-Oct-23 21:33N 51°15' E 006°43'5 4.9
2014-Oct-23 20:33N 51°11' E 006°47'6 6.2
2014-Oct-23 19:33N 51°06' E 006°53'88 5.8
2014-Oct-23 04:27N 50°04' E 008°32'3 0.5
2014-Oct-22 21:33N 50°05' E 008°36'5 4.9
2014-Oct-22 20:33N 50°06' E 008°44'2 2.2
2014-Oct-22 19:33N 50°07' E 008°47'4 3.6
2014-Oct-22 18:33N 50°07' E 008°52'2 1.9
2014-Oct-22 17:33N 50°07' E 008°55'0 0.0
2014-Oct-22 16:33N 50°07' E 008°55'0 0.0
2014-Oct-22 15:33N 50°07' E 008°55'0 0.0
2014-Oct-22 14:33N 50°07' E 008°55'0 0.0
2014-Oct-22 13:33N 50°07' E 008°55'0 0.0
2014-Oct-22 12:33N 50°07' E 008°55'0 0.0
2014-Oct-22 11:33N 50°07' E 008°55'0 0.1
2014-Oct-22 10:33N 50°07' E 008°55'0 0.0
2014-Oct-22 09:33N 50°07' E 008°55'0 0.0
2014-Oct-22 08:33N 50°07' E 008°55'2 1.8
2014-Oct-22 07:33N 50°07' E 008°52'4 3.8
2014-Oct-22 06:33N 50°07' E 008°46'3 2.9
2014-Oct-22 05:32N 50°06' E 008°42'6 4.5
2014-Oct-22 04:12N 50°06' E 008°33'  

Dump ship's entire track history